Overview Statistics Trail Chart Weather Telemetry Raw packets
 

This is the latest recevied weather packets stored in our database for station/object OK2VOP-6. If no packets are shown the sender has not sent any weather packets the latest 10 day(s).

<< 16 17 18 19 20 21 22 >>
Time Temp. Humidity Pressure Rain* Wind** Luminosity Snow
1788181880 27.78° C 31% - 0 mm - - -
1788180675 26.67° C 33% - 0 mm - - -
1788179470 26.67° C 32% - 0 mm - - -
1788178265 26.11° C 35% - 0 mm - - -
1788177060 24.44° C 37% - 0 mm - - -
1788175855 24.44° C 36% - 0 mm - - -
1788174651 24.44° C 36% - 0 mm - - -
1788173446 23.89° C 38% - 0 mm - - -
1788172241 23.33° C 39% - 0 mm - - -
1788171036 22.78° C 41% - 0 mm - - -
1788168626 23.33° C 37% - 0 mm - - -
1788167421 23.89° C 39% - 0 mm - - -
1788166221 22.78° C 42% - 0 mm - - -
1788165011 22.22° C 45% - 0 mm - - -
1788163808 22.22° C 47% - 0 mm - - -
1788162602 22.22° C 46% - 0 mm - - -
1788161397 22.78° C 45% - 0 mm - - -
1788160192 22.78° C 41% - 0 mm - - -
1788158987 22.22° C 44% - 0 mm - - -
1788157782 21.11° C 48% - 0 mm - - -
1788156577 21.11° C 47% - 0 mm - - -
1788155372 20.56° C 44% - 0 mm - - -
1788154167 20.56° C 44% - 0 mm - - -
1788152963 19.44° C 50% - 0 mm - - -
1788150553 20.56° C 41% - 0 mm - - -

* Rain latest hour (hover to see other rain measurements)
** Current wind speed in m/s (hover to see current wind gust speed)